Time;durP1;ratioP1;P1;durP2;ratioP2;P2;SDS_P1;SDS_P2;PMS_P1;PMS_P2;Temp;Humidity;BMP_temperature;BMP_pressure;BME280_temperature;BME280_humidity;BME280_pressure;Samples;Min_cycle;Max_cycle;Signal;HPM_P1;HPM_P2
2022/07/14 00:02:02;;;;;;;12.73;4.22;;;;;;;16.61;75.02;102021.50;4989202;28;20068;-70
2022/07/14 00:04:27;;;;;;;13.30;3.85;;;;;;;16.78;74.87;102039.22;5006651;28;20076;-72
2022/07/14 00:06:52;;;;;;;12.93;3.85;;;;;;;16.74;74.87;102040.44;5006364;28;20021;-75
2022/07/14 00:09:18;;;;;;;13.65;4.15;;;;;;;16.66;75.04;102032.41;5004714;28;20026;-73
2022/07/14 00:11:43;;;;;;;12.13;3.72;;;;;;;16.80;73.93;102039.88;5005248;28;20088;-76
2022/07/14 00:14:09;;;;;;;12.80;4.00;;;;;;;16.69;74.67;102050.50;5003136;28;20022;-76
2022/07/14 00:16:34;;;;;;;13.98;4.20;;;;;;;16.71;74.92;102051.19;4997223;28;20045;-70
2022/07/14 00:18:59;;;;;;;11.82;3.90;;;;;;;16.67;74.51;102034.06;5006910;28;20486;-73
2022/07/14 00:21:25;;;;;;;12.30;3.90;;;;;;;16.52;75.93;102032.81;5007075;28;20417;-76
2022/07/14 00:23:50;;;;;;;13.80;3.90;;;;;;;16.42;75.53;102036.22;5007497;28;20056;-76
2022/07/14 00:26:15;;;;;;;13.70;4.10;;;;;;;16.52;75.75;102030.19;4988594;28;20027;-76
2022/07/14 00:28:41;;;;;;;11.70;3.60;;;;;;;16.41;75.69;102013.63;5006747;28;20037;-76
2022/07/14 00:31:08;;;;;;;12.30;3.95;;;;;;;16.40;75.76;102027.69;5003445;28;20113;-76
2022/07/14 00:33:33;;;;;;;14.63;3.95;;;;;;;16.17;76.18;102023.56;4998225;28;20119;-74
2022/07/14 00:35:59;;;;;;;11.30;3.80;;;;;;;16.39;75.79;102046.94;5007039;28;20017;-75
2022/07/14 00:38:25;;;;;;;12.98;3.72;;;;;;;16.21;76.38;102035.44;5007635;28;20030;-73
2022/07/14 00:40:51;;;;;;;12.40;3.70;;;;;;;16.29;75.88;102040.88;5004820;28;20026;-75
2022/07/14 00:43:17;;;;;;;13.15;3.72;;;;;;;16.39;75.82;102051.34;4989309;28;20124;-75
2022/07/14 00:45:42;;;;;;;14.35;3.83;;;;;;;16.29;76.05;102048.72;5005501;28;20029;-74
2022/07/14 00:48:07;;;;;;;12.70;3.80;;;;;;;16.35;75.89;102050.81;4989163;28;20509;-72
2022/07/14 00:50:33;;;;;;;12.93;3.85;;;;;;;16.17;76.38;102047.13;5006142;28;20141;-76
2022/07/14 00:53:05;;;;;;;13.27;3.88;;;;;;;16.14;76.63;102036.94;4985748;28;20378;-75
2022/07/14 00:55:30;;;;;;;14.18;3.88;;;;;;;16.20;76.34;102037.25;4994738;28;20022;-76
2022/07/14 00:57:56;;;;;;;13.82;3.95;;;;;;;16.13;76.76;102048.38;4992209;28;20470;-71
2022/07/14 01:00:22;;;;;;;11.75;3.88;;;;;;;16.25;76.44;102041.25;5004253;28;20033;-76
2022/07/14 01:02:47;;;;;;;11.63;4.22;;;;;;;16.22;76.49;102029.25;5004681;28;20460;-74
2022/07/14 01:05:13;;;;;;;12.85;3.90;;;;;;;16.30;76.03;102037.28;5004551;28;20553;-74
2022/07/14 01:07:38;;;;;;;12.18;3.95;;;;;;;16.03;77.07;102044.88;4993074;28;20053;-76
2022/07/14 01:10:05;;;;;;;11.50;3.97;;;;;;;16.07;77.24;102030.59;5003463;28;20529;-75
2022/07/14 01:12:31;;;;;;;13.13;4.18;;;;;;;16.07;77.20;102041.06;4994734;28;21335;-76
2022/07/14 01:14:57;;;;;;;12.27;4.05;;;;;;;16.06;77.35;102044.63;5002932;28;20366;-76
2022/07/14 01:17:22;;;;;;;12.00;4.13;;;;;;;16.01;77.20;102052.03;5001777;28;20455;-76
2022/07/14 01:19:48;;;;;;;15.63;4.25;;;;;;;15.91;77.32;102057.22;5003797;28;20506;-75
2022/07/14 01:22:14;;;;;;;13.10;3.90;;;;;;;16.04;77.00;102062.25;4994964;28;20038;-70
2022/07/14 01:24:39;;;;;;;12.73;4.05;;;;;;;15.83;77.32;102044.81;4999167;28;20026;-70
2022/07/14 01:27:04;;;;;;;14.27;4.00;;;;;;;15.92;77.63;102048.41;4998075;28;20020;-76
2022/07/14 01:29:30;;;;;;;14.25;4.07;;;;;;;15.98;77.20;102053.13;5003475;28;20029;-76
2022/07/14 01:31:55;;;;;;;12.70;3.97;;;;;;;15.76;76.67;102017.47;4990749;28;20451;-74
2022/07/14 01:34:21;;;;;;;11.88;4.00;;;;;;;15.95;77.03;102047.34;5001326;28;20026;-71
2022/07/14 01:36:48;;;;;;;15.48;4.00;;;;;;;15.93;77.04;102065.75;5003398;28;20026;-76
2022/07/14 01:39:14;;;;;;;14.15;3.92;;;;;;;15.92;77.26;102075.41;4985771;28;20033;-76
2022/07/14 01:41:39;;;;;;;14.52;4.22;;;;;;;15.89;76.80;102052.13;5006007;28;20436;-75
2022/07/14 01:44:05;;;;;;;13.95;4.10;;;;;;;15.99;77.06;102069.66;4997236;28;20049;-76
2022/07/14 01:46:30;;;;;;;13.43;3.95;;;;;;;16.03;76.44;102076.28;5004909;28;20018;-73
2022/07/14 01:48:55;;;;;;;12.10;4.30;;;;;;;16.05;76.00;102064.72;5004447;28;20057;-75
2022/07/14 01:51:21;;;;;;;12.80;3.90;;;;;;;15.88;76.87;102067.94;4999257;28;20542;-76
2022/07/14 01:53:47;;;;;;;13.18;4.03;;;;;;;15.99;76.22;102069.66;4995288;28;20023;-76
2022/07/14 01:56:12;;;;;;;14.77;4.57;;;;;;;15.92;76.96;102059.69;4982772;28;20034;-76
2022/07/14 01:58:38;;;;;;;17.33;4.15;;;;;;;15.87;76.83;102067.09;4999179;28;20026;-76
2022/07/14 02:03:54;;;;;;;14.80;4.28;;;;;;;15.85;76.72;102063.81;4998032;28;20719;-75
2022/07/14 02:06:19;;;;;;;16.23;4.57;;;;;;;15.86;76.39;102054.16;5010299;28;20053;-75
2022/07/14 02:08:44;;;;;;;14.32;4.82;;;;;;;15.75;76.73;102052.44;5003973;28;20101;-76
2022/07/14 02:13:53;;;;;;;12.85;4.50;;;;;;;15.61;77.24;102044.91;5003071;28;20068;-75
2022/07/14 02:16:19;;;;;;;13.52;4.40;;;;;;;15.60;77.13;102049.31;5002568;28;20389;-76
2022/07/14 02:18:44;;;;;;;15.32;4.75;;;;;;;15.56;76.90;102034.00;5006957;28;20449;-76
2022/07/14 02:21:09;;;;;;;13.57;4.85;;;;;;;15.64;76.92;102044.66;5007849;28;20022;-76
2022/07/14 02:23:35;;;;;;;12.85;4.72;;;;;;;15.55;76.68;102048.03;4996464;28;20049;-76
2022/07/14 02:26:00;;;;;;;13.88;4.80;;;;;;;15.54;77.30;102056.81;5008696;28;20030;-74
2022/07/14 02:28:25;;;;;;;12.93;4.55;;;;;;;15.52;77.52;102058.75;5008508;28;20068;-76
2022/07/14 02:30:51;;;;;;;15.07;4.70;;;;;;;15.32;77.88;102050.75;5001380;28;20603;-76
2022/07/14 02:33:17;;;;;;;11.35;4.53;;;;;;;15.41;77.68;102052.59;5004151;28;20030;-76
2022/07/14 02:35:42;;;;;;;14.52;4.70;;;;;;;15.37;78.13;102043.38;4992959;28;20038;-76
2022/07/14 02:38:08;;;;;;;14.65;4.90;;;;;;;15.32;78.26;102050.75;4997527;28;20018;-76
2022/07/14 02:40:33;;;;;;;15.52;5.15;;;;;;;15.35;78.41;102053.13;5001172;28;20029;-76
2022/07/14 02:42:59;;;;;;;13.73;4.78;;;;;;;15.29;78.06;102051.00;5004839;28;20025;-75
2022/07/14 02:45:25;;;;;;;14.05;4.63;;;;;;;15.24;78.17;102047.94;5007804;28;20419;-77
2022/07/14 02:47:50;;;;;;;12.43;4.70;;;;;;;15.25;78.35;102054.81;5003254;28;20022;-76
2022/07/14 02:50:15;;;;;;;14.68;4.88;;;;;;;15.20;78.61;102051.78;4990814;28;20109;-71
2022/07/14 02:52:41;;;;;;;13.65;4.65;;;;;;;15.18;78.45;102053.66;5008286;28;20145;-76
2022/07/14 02:55:06;;;;;;;15.55;4.53;;;;;;;15.17;78.33;102046.78;5008436;28;20053;-76
2022/07/14 02:57:32;;;;;;;12.70;4.57;;;;;;;15.21;78.04;102048.19;5008842;28;20109;-75
2022/07/14 02:59:58;;;;;;;11.38;4.47;;;;;;;15.16;78.36;102045.13;5003636;28;20030;-74
2022/07/14 03:02:24;;;;;;;14.80;4.93;;;;;;;15.20;78.50;102041.31;5007568;28;20010;-75
2022/07/14 03:04:49;;;;;;;13.15;4.63;;;;;;;15.03;78.56;102028.81;5004792;28;20033;-75
2022/07/14 03:07:15;;;;;;;13.98;4.38;;;;;;;15.05;78.26;102030.31;5008824;28;20454;-76
2022/07/14 03:09:40;;;;;;;12.43;4.00;;;;;;;15.12;78.07;102022.81;5002893;28;20029;-76
2022/07/14 03:12:06;;;;;;;12.02;4.10;;;;;;;14.96;78.43;102009.31;5006535;28;20021;-74
2022/07/14 03:14:31;;;;;;;11.93;3.95;;;;;;;15.02;78.08;102022.72;5007284;28;20037;-77
2022/07/14 03:16:56;;;;;;;14.48;4.28;;;;;;;15.06;78.00;102012.84;4987873;28;20041;-73
2022/07/14 03:19:23;;;;;;;12.95;4.20;;;;;;;14.98;77.54;102010.06;5003919;28;20139;-77
2022/07/14 03:21:48;;;;;;;14.23;4.32;;;;;;;14.95;77.94;102015.50;5008398;28;20466;-76
2022/07/14 03:24:13;;;;;;;13.50;4.30;;;;;;;14.92;77.57;102026.22;5007188;28;20466;-70
2022/07/14 03:26:39;;;;;;;12.90;4.25;;;;;;;14.77;78.46;102029.09;5001421;28;20026;-76
2022/07/14 03:29:05;;;;;;;12.63;4.03;;;;;;;14.83;78.18;102022.56;5007292;28;20033;-77
2022/07/14 03:31:30;;;;;;;13.60;4.60;;;;;;;14.79;78.34;102019.34;4994480;28;20026;-76
2022/07/14 03:33:56;;;;;;;16.08;5.22;;;;;;;14.79;78.85;102027.19;5004519;28;20068;-75
2022/07/14 03:36:21;;;;;;;14.20;4.60;;;;;;;14.76;78.26;102022.22;4996124;28;20068;-70
2022/07/14 03:38:47;;;;;;;12.80;4.68;;;;;;;14.69;79.04;102028.91;5000777;28;20366;-74
2022/07/14 03:41:13;;;;;;;13.73;4.78;;;;;;;14.73;79.03;102032.91;5005629;28;20033;-75
2022/07/14 03:43:38;;;;;;;13.80;4.22;;;;;;;14.70;79.09;102021.91;4990619;28;20083;-77
2022/07/14 03:46:05;;;;;;;15.75;4.75;;;;;;;14.71;79.00;102024.38;5007256;28;20100;-76
2022/07/14 03:48:31;;;;;;;14.52;4.57;;;;;;;14.60;79.19;102016.56;5003655;28;20052;-76
2022/07/14 03:50:56;;;;;;;15.30;4.80;;;;;;;14.64;79.55;102018.00;4999518;28;20072;-71
2022/07/14 03:53:22;;;;;;;15.48;4.50;;;;;;;14.60;79.45;102016.56;5000573;28;20026;-77
2022/07/14 03:55:47;;;;;;;14.35;4.80;;;;;;;14.68;79.29;102018.56;4998987;28;20435;-77
2022/07/14 03:58:13;;;;;;;14.07;4.38;;;;;;;14.66;79.33;102021.28;4996888;28;20077;-73
2022/07/14 04:00:38;;;;;;;14.98;4.22;;;;;;;14.54;79.25;102001.38;5001236;28;20049;-73
2022/07/14 04:03:03;;;;;;;14.05;4.20;;;;;;;14.56;79.33;102015.97;4995945;28;20410;-73
2022/07/14 04:05:29;;;;;;;12.90;4.15;;;;;;;14.62;79.19;102009.44;5006145;28;20040;-70
2022/07/14 04:07:54;;;;;;;12.45;4.00;;;;;;;14.63;79.15;102011.13;5003664;28;20029;-77
2022/07/14 04:10:20;;;;;;;13.75;4.75;;;;;;;14.24;79.24;101942.81;4999165;28;20037;-77
2022/07/14 04:12:45;;;;;;;12.68;3.95;;;;;;;14.63;79.11;102011.13;4998933;28;20028;-75
2022/07/14 04:15:11;;;;;;;13.55;4.22;;;;;;;14.60;79.34;102016.56;5004380;28;20049;-77
2022/07/14 04:17:36;;;;;;;15.23;4.22;;;;;;;14.63;79.13;102011.13;4997325;28;20026;-74
2022/07/14 04:20:03;;;;;;;12.45;3.95;;;;;;;14.66;79.06;102000.41;5002392;28;20057;-76
2022/07/14 04:22:28;;;;;;;10.85;4.07;;;;;;;14.65;79.49;101997.94;5004870;28;20026;-77
2022/07/14 04:24:54;;;;;;;12.85;4.32;;;;;;;14.61;79.77;102003.38;5005480;28;20026;-76
2022/07/14 04:27:19;;;;;;;12.27;4.22;;;;;;;14.54;79.49;102001.38;4995691;28;20125;-77
2022/07/14 04:29:45;;;;;;;12.15;3.92;;;;;;;14.64;79.06;102009.31;4997096;28;20067;-77
2022/07/14 04:32:10;;;;;;;12.95;4.35;;;;;;;14.49;79.53;102003.53;5000783;28;20053;-77
2022/07/14 04:34:36;;;;;;;15.95;4.35;;;;;;;14.50;79.36;102002.56;5005927;28;20065;-76
2022/07/14 04:37:02;;;;;;;15.45;4.22;;;;;;;14.59;79.86;102020.13;5006092;28;20069;-77
2022/07/14 04:39:27;;;;;;;10.60;4.30;;;;;;;14.61;79.60;102015.59;5006626;28;20026;-77
2022/07/14 04:41:53;;;;;;;15.52;4.75;;;;;;;14.50;79.83;102003.41;5007978;28;20061;-73
2022/07/14 04:44:18;;;;;;;12.57;5.07;;;;;;;14.64;79.48;102012.78;5000913;28;20018;-78
2022/07/14 04:46:43;;;;;;;13.38;4.80;;;;;;;14.67;79.45;102022.94;4999236;28;20109;-74
2022/07/14 04:52:02;;;;;;;12.25;4.28;;;;;;;14.55;79.81;102003.88;4993951;28;20045;-75
2022/07/14 04:54:32;;;;;;;12.20;4.38;;;;;;;14.63;79.85;102021.56;4996776;28;20474;-76
2022/07/14 04:56:57;;;;;;;14.30;4.45;;;;;;;14.66;79.86;102026.53;5006123;28;20018;-75
2022/07/14 04:59:23;;;;;;;11.73;4.13;;;;;;;14.73;79.54;102022.47;4981061;28;20040;-76
2022/07/14 05:01:48;;;;;;;14.35;4.65;;;;;;;14.66;79.52;102021.28;5002034;28;20029;-76
2022/07/14 05:04:13;;;;;;;12.15;4.22;;;;;;;14.70;79.74;102027.94;5000315;28;20471;-75
2022/07/14 05:06:39;;;;;;;16.35;4.75;;;;;;;14.63;80.25;102005.06;5001946;28;20022;-75
2022/07/14 05:09:04;;;;;;;14.30;4.90;;;;;;;14.66;79.95;102016.06;5003840;28;20025;-77
2022/07/14 05:11:30;;;;;;;13.93;4.78;;;;;;;14.80;79.00;102022.81;5002262;28;20057;-77
2022/07/14 05:13:55;;;;;;;13.70;5.50;;;;;;;14.81;79.09;102014.03;5001963;28;20052;-77
2022/07/14 05:16:21;;;;;;;13.95;6.03;;;;;;;14.68;79.56;102018.56;5000643;28;20033;-77
2022/07/14 05:18:47;;;;;;;13.40;6.00;;;;;;;14.71;79.49;102023.53;5005855;28;20046;-77
2022/07/14 05:21:14;;;;;;;13.32;5.70;;;;;;;14.78;78.97;102015.09;5004010;28;20592;-78
2022/07/14 05:23:39;;;;;;;13.55;5.90;;;;;;;14.87;79.18;102023.97;4996131;28;20052;-77
2022/07/14 05:26:14;;;;;;;13.15;6.07;;;;;;;14.80;79.40;102018.44;4993268;28;20463;-78
2022/07/14 05:28:39;;;;;;;13.43;5.63;;;;;;;14.86;79.42;102023.16;5005792;28;20196;-75
2022/07/14 05:31:05;;;;;;;15.40;5.40;;;;;;;14.83;79.00;102010.31;5005518;28;20033;-78
2022/07/14 05:33:30;;;;;;;14.30;5.43;;;;;;;14.99;78.77;102035.22;5001736;28;20057;-78
2022/07/14 05:35:56;;;;;;;14.30;4.82;;;;;;;14.91;77.85;102029.75;5006894;28;20166;-77
2022/07/14 05:38:23;;;;;;;15.90;5.75;;;;;;;15.08;77.79;102031.84;5002629;28;20041;-78
2022/07/14 05:40:49;;;;;;;15.68;5.82;;;;;;;15.02;77.99;102027.13;5008540;28;20026;-78
2022/07/14 05:43:14;;;;;;;14.82;6.32;;;;;;;15.04;78.60;102020.81;5007055;28;20378;-78
2022/07/14 05:45:40;;;;;;;14.18;6.13;;;;;;;15.19;78.38;102037.03;5001858;28;20029;-77
2022/07/14 05:48:05;;;;;;;15.05;5.55;;;;;;;15.17;77.36;102031.09;4990065;28;20064;-75
2022/07/14 05:50:31;;;;;;;13.45;5.30;;;;;;;15.16;76.78;102036.47;4991491;28;20140;-78
2022/07/14 05:52:56;;;;;;;13.75;5.68;;;;;;;15.22;77.58;102034.16;5008558;28;20486;-78
2022/07/14 05:55:22;;;;;;;15.20;5.63;;;;;;;15.14;77.62;102031.38;5009399;28;20513;-78
2022/07/14 05:57:48;;;;;;;11.82;5.22;;;;;;;15.20;76.53;102046.53;5006386;28;20058;-78
2022/07/14 06:00:15;;;;;;;15.05;5.40;;;;;;;15.37;77.36;102043.38;5005439;28;20026;-73
2022/07/14 06:02:41;;;;;;;18.08;6.03;;;;;;;15.49;76.12;102038.09;5004420;28;20026;-78
2022/07/14 06:05:07;;;;;;;13.05;5.20;;;;;;;15.52;76.29;102025.56;5008096;28;20077;-77
2022/07/14 06:07:32;;;;;;;15.48;5.03;;;;;;;15.50;76.07;102029.28;5006299;28;20505;-78
2022/07/14 06:09:58;;;;;;;14.30;5.15;;;;;;;15.66;75.38;102016.63;5009834;28;20013;-75
2022/07/14 06:12:24;;;;;;;13.77;4.95;;;;;;;15.61;75.41;102003.88;5008494;28;20393;-77
2022/07/14 06:14:49;;;;;;;14.20;4.85;;;;;;;15.77;75.55;102013.94;5006386;28;20018;-77
2022/07/14 06:17:15;;;;;;;13.82;5.43;;;;;;;15.86;75.01;102013.13;4996691;28;20056;-76
2022/07/14 06:19:40;;;;;;;16.52;5.90;;;;;;;15.81;75.30;102010.06;5005990;28;20088;-75
2022/07/14 06:22:06;;;;;;;14.20;6.00;;;;;;;15.87;75.23;102004.31;4991438;28;20022;-75
2022/07/14 06:24:33;;;;;;;13.68;5.88;;;;;;;15.96;74.86;102018.41;5009663;28;20061;-77
2022/07/14 06:26:58;;;;;;;15.45;5.68;;;;;;;16.14;74.54;102011.59;5009470;28;20097;-77
2022/07/14 06:29:23;;;;;;;13.93;6.78;;;;;;;16.10;74.21;102019.84;5009215;28;20116;-75
2022/07/14 06:31:55;;;;;;;14.20;6.47;;;;;;;16.16;73.71;102014.91;5008635;28;20458;-76
2022/07/14 06:34:20;;;;;;;16.20;6.50;;;;;;;16.28;73.99;102026.09;4998567;28;20735;-77
2022/07/14 06:36:46;;;;;;;14.20;6.63;;;;;;;16.35;73.95;102016.78;5003011;28;20022;-77
2022/07/14 06:39:11;;;;;;;13.77;5.65;;;;;;;16.43;72.33;102019.53;4985461;28;20405;-74
2022/07/14 06:41:37;;;;;;;15.57;6.30;;;;;;;16.35;73.08;102002.84;5008402;28;20538;-76
2022/07/14 06:44:02;;;;;;;16.45;5.68;;;;;;;16.40;72.11;102011.97;5009237;28;20026;-77
2022/07/14 06:46:31;;;;;;;19.13;6.72;;;;;;;16.49;72.13;102019.97;4996943;28;20541;-75
2022/07/14 06:48:57;;;;;;;15.98;5.72;;;;;;;16.58;72.44;102024.41;5002448;28;20121;-77
2022/07/14 06:51:22;;;;;;;15.35;5.13;;;;;;;16.55;72.16;102024.66;5007581;28;20597;-75
2022/07/14 06:53:47;;;;;;;15.13;4.90;;;;;;;16.58;70.93;102027.84;4995026;28;20214;-77
2022/07/14 06:56:13;;;;;;;15.30;4.35;;;;;;;16.66;70.98;102037.66;5001394;28;20109;-74
2022/07/14 06:58:38;;;;;;;14.05;4.07;;;;;;;16.61;70.93;102029.34;5001875;28;20037;-73
2022/07/14 07:01:04;;;;;;;12.60;4.10;;;;;;;16.65;70.02;102036.00;5004836;28;20014;-76
2022/07/14 07:03:29;;;;;;;19.70;4.20;;;;;;;16.65;70.99;102031.56;5004035;28;20037;-77
2022/07/14 07:08:39;;;;;;;13.75;4.30;;;;;;;16.82;69.68;102021.44;5005639;28;20158;-77
2022/07/14 07:11:04;;;;;;;16.15;4.18;;;;;;;16.85;69.36;102027.22;5007914;28;20459;-76
2022/07/14 07:13:29;;;;;;;12.50;3.80;;;;;;;16.85;69.97;102021.97;5006999;28;20474;-76
2022/07/14 07:15:55;;;;;;;12.48;4.07;;;;;;;17.01;69.62;102025.84;5006951;28;20069;-75
2022/07/14 07:18:20;;;;;;;13.25;4.07;;;;;;;16.97;70.18;102033.16;5006486;28;20452;-77
2022/07/14 07:20:45;;;;;;;16.48;3.65;;;;;;;17.14;69.27;102037.69;5003479;28;20030;-78
2022/07/14 07:23:11;;;;;;;10.43;3.17;;;;;;;17.17;68.19;102023.50;4994875;28;20038;-76
2022/07/14 07:25:36;;;;;;;17.50;3.70;;;;;;;17.32;68.31;102030.00;5001144;28;20026;-77
2022/07/14 07:28:02;;;;;;;12.63;3.38;;;;;;;17.34;67.20;102038.53;4985210;28;20030;-77
2022/07/14 07:30:28;;;;;;;10.60;3.35;;;;;;;17.32;67.66;102035.22;5003857;28;20025;-77
2022/07/14 07:32:53;;;;;;;11.45;3.15;;;;;;;17.47;68.46;102033.00;4996115;28;20045;-75
2022/07/14 07:35:19;;;;;;;10.13;2.90;;;;;;;17.45;66.98;102030.50;5008596;28;20073;-77
2022/07/14 07:37:45;;;;;;;12.00;3.10;;;;;;;17.44;66.43;102018.38;5006335;28;20101;-74
2022/07/14 07:40:11;;;;;;;10.82;2.70;;;;;;;17.58;68.00;102021.50;5008007;28;20180;-76
2022/07/14 07:42:36;;;;;;;8.52;2.78;;;;;;;17.79;67.01;102016.94;4994046;28;20036;-75
2022/07/14 07:45:02;;;;;;;8.85;2.75;;;;;;;17.84;66.13;102013.88;5006467;28;20036;-76
2022/07/14 07:47:28;;;;;;;10.20;2.70;;;;;;;17.75;64.93;102015.56;5005861;28;20030;-77
2022/07/14 07:49:53;;;;;;;11.50;2.53;;;;;;;17.85;65.37;102008.50;5003021;28;20080;-77
2022/07/14 07:52:20;;;;;;;8.63;3.00;;;;;;;17.97;65.35;102001.25;5007819;28;20025;-77
2022/07/14 07:54:46;;;;;;;11.57;2.95;;;;;;;17.92;64.31;101996.44;5005043;28;20088;-77
2022/07/14 07:57:12;;;;;;;9.18;2.70;;;;;;;18.15;64.53;102006.56;4999819;28;20033;-77
2022/07/14 07:59:38;;;;;;;11.32;2.80;;;;;;;18.25;65.24;102007.34;5005097;28;20025;-76
2022/07/14 08:02:03;;;;;;;12.40;2.60;;;;;;;18.35;63.67;102000.25;5008377;28;20037;-77
2022/07/14 08:04:28;;;;;;;9.02;2.90;;;;;;;18.44;64.18;101991.47;5006877;28;20037;-76
2022/07/14 08:06:54;;;;;;;9.32;2.45;;;;;;;18.45;64.28;101979.97;5006167;28;20469;-77
2022/07/14 08:09:19;;;;;;;8.73;2.70;;;;;;;18.51;63.30;101971.50;4997080;28;20034;-77
2022/07/14 08:11:45;;;;;;;9.50;2.70;;;;;;;18.67;64.80;101985.78;4999539;28;20108;-76
2022/07/14 08:16:56;;;;;;;9.95;2.83;;;;;;;18.92;62.13;101990.28;5008325;28;20112;-76
2022/07/14 08:19:21;;;;;;;8.90;2.72;;;;;;;19.01;62.69;101986.78;5005015;28;20058;-76
2022/07/14 08:21:46;;;;;;;9.73;2.85;;;;;;;18.77;60.85;101986.56;4988410;28;20059;-76
2022/07/14 08:24:12;;;;;;;10.20;2.80;;;;;;;18.87;61.44;101974.19;4997398;28;20235;-76
2022/07/14 08:26:37;;;;;;;11.02;2.80;;;;;;;19.03;61.76;101976.91;4989287;28;20390;-74
2022/07/14 08:29:02;;;;;;;12.10;2.90;;;;;;;19.09;62.05;101965.78;4988616;28;20490;-77
2022/07/14 08:31:28;;;;;;;8.63;2.72;;;;;;;18.94;61.70;101971.75;5005784;28;20057;-77
2022/07/14 08:33:53;;;;;;;9.10;3.05;;;;;;;19.13;60.97;101970.75;5007094;28;20052;-76
2022/07/14 08:36:19;;;;;;;9.52;2.53;;;;;;;19.24;60.77;101962.63;5006907;28;20080;-77
2022/07/14 08:38:44;;;;;;;10.55;3.03;;;;;;;19.25;61.06;101954.56;5000590;28;20025;-77
2022/07/14 08:41:10;;;;;;;12.73;3.08;;;;;;;19.35;61.93;101944.75;4989796;28;20097;-77
2022/07/14 08:43:37;;;;;;;11.60;2.97;;;;;;;19.48;60.25;101954.88;4997504;28;20382;-77
2022/07/14 08:46:04;;;;;;;12.30;2.78;;;;;;;19.54;60.17;101954.22;5005193;28;20018;-75
2022/07/14 08:48:30;;;;;;;10.18;2.40;;;;;;;19.69;58.92;101951.06;5000247;28;20029;-76
2022/07/14 08:50:56;;;;;;;10.77;2.83;;;;;;;19.72;59.58;101945.47;4997592;28;20064;-77
2022/07/14 08:53:22;;;;;;;11.48;2.78;;;;;;;19.88;59.39;101945.53;4999611;28;20045;-76
2022/07/14 08:55:48;;;;;;;7.25;2.38;;;;;;;19.76;58.55;101936.28;4997652;28;20359;-77
2022/07/14 08:58:13;;;;;;;9.07;2.40;;;;;;;19.65;56.75;101941.81;4999883;28;20359;-75
2022/07/14 09:00:39;;;;;;;9.00;2.78;;;;;;;19.78;57.76;101940.41;4993658;28;20034;-77
2022/07/14 09:03:05;;;;;;;7.38;2.08;;;;;;;19.98;56.46;101940.97;5000321;28;20048;-74
2022/07/14 09:05:30;;;;;;;9.77;2.33;;;;;;;19.83;56.11;101937.28;5001024;28;20100;-75
2022/07/14 09:07:57;;;;;;;8.15;2.20;;;;;;;19.98;57.33;101940.97;4987712;28;20451;-71
2022/07/14 09:10:27;;;;;;;11.50;2.63;;;;;;;19.98;56.77;101930.44;4982884;28;20026;-75
2022/07/14 09:13:13;;;;;;;7.57;2.20;;;;;;;20.18;56.27;101938.88;4999140;28;20038;-76
2022/07/14 09:15:45;;;;;;;9.27;1.75;;;;;;;20.23;52.72;101938.41;4999290;28;20084;-76
2022/07/14 09:18:19;;;;;;;5.68;2.00;;;;;;;20.30;54.68;101936.75;4993590;28;20453;-76
2022/07/14 09:20:44;;;;;;;5.65;1.65;;;;;;;20.41;54.48;101933.81;5005552;28;20029;-77
2022/07/14 09:23:09;;;;;;;8.30;1.98;;;;;;;20.27;52.62;101929.19;5004648;28;20022;-77
2022/07/14 09:25:35;;;;;;;6.10;2.00;;;;;;;20.51;53.90;101942.44;5006578;28;20022;-74
2022/07/14 09:28:02;;;;;;;7.50;1.75;;;;;;;20.49;52.07;101941.78;5000792;28;20447;-74
2022/07/14 09:30:29;;;;;;;5.82;1.88;;;;;;;20.61;52.22;101937.84;5002324;28;20116;-70
2022/07/14 09:32:56;;;;;;;6.97;1.95;;;;;;;20.67;51.49;101942.47;5005133;28;20025;-75
2022/07/14 09:35:34;;;;;;;42.17;4.10;;;;;;;20.98;53.89;101944.41;4987600;28;20493;-75
2022/07/14 09:38:01;;;;;;;97.65;16.25;;;;;;;21.15;51.69;101940.75;5000192;28;20033;-75
2022/07/14 09:40:31;;;;;;;22.17;3.15;;;;;;;20.99;50.90;101932.91;4996053;28;20040;-75
2022/07/14 09:42:57;;;;;;;8.10;1.88;;;;;;;21.13;50.58;101947.22;5002616;28;20021;-75
2022/07/14 09:45:35;;;;;;;8.18;2.13;;;;;;;21.39;52.44;101953.16;4994545;28;20034;-74
2022/07/14 09:48:07;;;;;;;12.27;2.50;;;;;;;21.32;50.66;101956.59;5005726;28;20029;-74
2022/07/14 09:50:54;;;;;;;7.40;2.20;;;;;;;21.59;53.74;101958.84;5006002;28;20040;-75
2022/07/14 09:53:33;;;;;;;10.07;2.25;;;;;;;21.60;50.63;101964.94;5001769;28;20033;-75
2022/07/14 09:56:03;;;;;;;5.68;1.67;;;;;;;21.61;51.61;101962.13;5005270;28;20417;-75
2022/07/14 09:58:32;;;;;;;5.10;1.75;;;;;;;21.70;49.92;101962.94;4999163;28;20026;-74
2022/07/14 10:01:04;;;;;;;6.47;1.75;;;;;;;21.99;51.14;101967.59;5001809;28;20026;-74
2022/07/14 10:03:32;;;;;;;7.53;1.80;;;;;;;21.80;49.50;101965.41;5000992;28;20028;-74
2022/07/14 10:05:59;;;;;;;5.63;2.13;;;;;;;21.79;50.35;101969.81;4999124;28;20026;-75
2022/07/14 10:08:28;;;;;;;7.70;2.55;;;;;;;21.63;50.57;101954.06;5001895;28;20038;-76
2022/07/14 10:10:55;;;;;;;6.60;1.80;;;;;;;21.89;49.31;101977.56;4998327;28;20041;-75
2022/07/14 10:13:21;;;;;;;6.07;1.80;;;;;;;21.84;48.49;101971.97;5002004;28;20430;-75
2022/07/14 10:15:49;;;;;;;9.20;2.10;;;;;;;22.00;50.62;101961.31;4989324;28;20113;-75
2022/07/14 10:18:15;;;;;;;;;;;;;;;22.22;49.74;101965.88;5001975;28;21055;-75
2022/07/14 10:20:40;;;;;;;6.30;1.90;;;;;;;21.97;50.55;101961.69;5005580;28;19918;-75
2022/07/14 10:23:06;;;;;;;7.57;1.80;;;;;;;22.15;49.32;101962.28;5003693;28;20100;-75
2022/07/14 10:25:32;;;;;;;4.70;1.50;;;;;;;22.26;50.23;101961.06;5003203;28;20022;-75
2022/07/14 10:27:59;;;;;;;6.10;1.77;;;;;;;22.20;47.82;101957.31;5005336;28;20057;-75
2022/07/14 10:30:36;;;;;;;6.35;1.80;;;;;;;22.45;49.24;101962.41;5009117;28;20117;-75
2022/07/14 10:33:15;;;;;;;7.80;2.00;;;;;;;22.25;48.04;101970.81;4997456;28;20030;-75
2022/07/14 10:35:54;;;;;;;6.95;2.30;;;;;;;22.42;48.75;101960.13;5001487;28;20504;-75
2022/07/14 10:38:35;;;;;;;6.85;2.25;;;;;;;22.18;48.02;101953.97;5004258;28;20084;-75
2022/07/14 10:41:28;;;;;;;9.90;2.25;;;;;;;22.45;49.24;101960.59;4998567;28;20030;-75
2022/07/14 10:44:11;;;;;;;7.03;2.38;;;;;;;22.41;49.62;101958.47;5003063;28;20029;-75
2022/07/14 10:46:42;;;;;;;6.85;2.45;;;;;;;22.13;45.98;101944.94;5006655;28;20105;-75
2022/07/14 10:49:10;;;;;;;6.30;2.42;;;;;;;22.21;45.84;101961.59;5009704;28;20080;-74
2022/07/14 10:51:50;;;;;;;7.07;2.42;;;;;;;22.30;48.50;101956.22;5008389;28;20453;-75
2022/07/14 10:54:22;;;;;;;7.78;2.50;;;;;;;22.80;48.69;101953.06;5008479;28;20034;-75
2022/07/14 10:56:48;;;;;;;8.15;2.15;;;;;;;22.78;50.16;101950.59;5002171;28;20475;-74
2022/07/14 10:59:25;;;;;;;8.25;2.67;;;;;;;22.65;47.91;101950.41;5000311;28;20038;-73
2022/07/14 11:02:12;;;;;;;9.00;2.65;;;;;;;22.80;47.93;101943.31;4991244;28;20025;-76
2022/07/14 11:05:14;;;;;;;7.40;2.33;;;;;;;23.08;48.22;101934.81;5007933;28;20033;-73
2022/07/14 11:07:40;;;;;;;6.90;2.22;;;;;;;22.89;47.60;101940.63;5003560;28;20137;-76
2022/07/14 11:10:05;;;;;;;6.03;1.90;;;;;;;22.64;46.25;101938.13;5002448;28;20104;-75
2022/07/14 11:12:31;;;;;;;5.05;1.65;;;;;;;23.07;48.38;101935.00;5002354;28;20029;-73
2022/07/14 11:14:57;;;;;;;6.63;1.80;;;;;;;23.13;45.97;101937.75;5003527;28;20045;-76
2022/07/14 11:17:40;;;;;;;6.63;2.10;;;;;;;23.29;46.37;101942.88;5005123;28;20026;-73
2022/07/14 11:20:10;;;;;;;7.05;1.80;;;;;;;23.24;44.23;101950.53;4997572;28;20050;-71
2022/07/14 11:22:36;;;;;;;7.28;1.83;;;;;;;23.21;44.13;101942.94;5007616;28;20026;-75
2022/07/14 11:25:03;;;;;;;6.90;2.03;;;;;;;23.20;44.08;101943.97;5002664;28;20034;-75
2022/07/14 11:27:38;;;;;;;5.80;1.70;;;;;;;23.11;44.31;101950.34;4999566;28;20022;-76
2022/07/14 11:30:19;;;;;;;4.93;1.75;;;;;;;23.27;46.83;101931.63;4987014;28;20422;-74
2022/07/14 11:32:45;;;;;;;5.60;1.70;;;;;;;23.49;46.79;101937.03;5005898;28;20037;-76